Time;durP1;ratioP1;P1;durP2;ratioP2;P2;SDS_P1;SDS_P2;PMS_P1;PMS_P2;Temp;Humidity;BMP_temperature;BMP_pressure;BME280_temperature;BME280_humidity;BME280_pressure;Samples;Min_cycle;Max_cycle;Signal;HPM_P1;HPM_P2
2022/01/02 00:00:15;;;;;;;;;21.75;20.50;;;;;13.99;62.83;101605.72;5022408;28;45325;-65
2022/01/02 00:02:42;;;;;;;;;18.50;17.50;;;;;14.01;62.16;101594.00;5034826;28;45543;-65
2022/01/02 00:05:14;;;;;;;;;24.00;20.25;;;;;14.00;62.65;101591.34;5023929;28;47577;-65
2022/01/02 00:07:42;;;;;;;;;22.00;20.75;;;;;13.99;62.30;101603.91;5023045;28;45473;-65
2022/01/02 00:10:08;;;;;;;;;27.00;23.50;;;;;13.90;62.70;101594.38;5004363;28;45350;-65
2022/01/02 00:12:35;;;;;;;;;20.00;19.25;;;;;13.95;62.32;101591.53;5001077;28;46152;-64
2022/01/02 00:15:06;;;;;;;;;22.00;20.75;;;;;13.94;62.36;101594.28;5022309;28;46037;-65
2022/01/02 00:17:32;;;;;;;;;27.50;23.25;;;;;13.89;62.87;101581.88;5020553;28;45716;-64
2022/01/02 00:20:08;;;;;;;;;28.00;25.00;;;;;13.89;62.85;101576.50;5000508;28;45491;-64
2022/01/02 00:22:36;;;;;;;;;24.00;23.00;;;;;13.96;62.42;101587.03;5018194;28;45735;-64
2022/01/02 00:25:08;;;;;;;;;25.00;22.25;;;;;13.94;62.20;101589.78;5021040;28;46088;-65
2022/01/02 00:27:37;;;;;;;;;22.25;20.50;;;;;13.89;62.68;101581.00;5001180;28;45523;-65
2022/01/02 00:30:04;;;;;;;;;23.75;22.00;;;;;13.86;62.76;101586.47;5021904;28;45347;-64
2022/01/02 00:32:32;;;;;;;;;22.00;21.00;;;;;13.94;62.51;101602.31;5020352;28;45452;-65
2022/01/02 00:34:59;;;;;;;;;22.00;21.00;;;;;13.93;62.81;101604.09;5021727;28;46117;-64
2022/01/02 00:37:25;;;;;;;;;24.50;22.00;;;;;13.83;62.95;101582.09;5021602;28;45385;-65
2022/01/02 00:39:50;;;;;;;;;22.75;21.00;;;;;13.94;62.83;101597.81;5031172;28;45336;-65
2022/01/02 00:42:35;;;;;;;;;24.50;22.00;;;;;13.92;62.63;101590.78;5020053;28;46159;-65
2022/01/02 00:45:05;;;;;;;;;18.75;18.75;;;;;13.96;62.65;101592.41;5021711;28;45321;-64
2022/01/02 00:47:36;;;;;;;;;20.25;19.75;;;;;13.82;62.61;101572.25;5019066;28;45633;-65
2022/01/02 00:50:07;;;;;;;;;19.75;17.25;;;;;13.92;62.79;101590.78;5019877;28;45655;-65
2022/01/02 00:52:41;;;;;;;;;20.75;19.00;;;;;13.93;62.35;101590.69;5001505;28;45664;-64
2022/01/02 00:55:17;;;;;;;;;19.50;19.50;;;;;13.93;62.61;101603.25;5015363;28;47321;-65
2022/01/02 00:57:47;;;;;;;;;21.50;20.00;;;;;13.97;62.71;101605.78;4990441;28;45658;-65
2022/01/02 01:00:15;;;;;;;;;21.50;20.00;;;;;13.93;62.61;101582.63;5002441;28;45491;-65
2022/01/02 01:02:45;;;;;;;;;19.50;18.25;;;;;13.89;62.39;101562.22;5003027;28;45466;-65
2022/01/02 01:05:14;;;;;;;;;23.75;20.00;;;;;13.95;62.45;101566.47;5015747;28;45316;-64
2022/01/02 01:07:41;;;;;;;;;15.75;15.50;;;;;13.94;62.85;101570.13;5010174;28;45518;-65
2022/01/02 01:10:11;;;;;;;;;18.50;16.25;;;;;13.95;62.51;101562.00;5021100;28;45480;-64
2022/01/02 01:12:36;;;;;;;;;19.25;18.75;;;;;13.88;62.53;101536.28;5026630;28;45474;-65
2022/01/02 01:15:05;;;;;;;;;19.25;18.50;;;;;13.94;62.44;101554.00;5023314;28;46112;-65
2022/01/02 01:17:31;;;;;;;;;19.00;18.50;;;;;13.94;62.33;101546.81;5003222;28;45278;-65
2022/01/02 01:19:57;;;;;;;;;19.50;19.00;;;;;13.88;62.49;101531.81;5002584;28;45498;-64
2022/01/02 01:22:23;;;;;;;;;20.50;18.50;;;;;13.81;62.47;101518.66;5019060;28;46926;-65
2022/01/02 01:24:48;;;;;;;;;19.25;19.25;;;;;13.87;62.60;101519.31;5019528;28;48256;-65
2022/01/02 01:27:14;;;;;;;;;20.00;19.00;;;;;13.87;62.57;101518.44;5034787;28;45159;-64
2022/01/02 01:29:39;;;;;;;;;20.75;17.75;;;;;13.86;62.51;101516.69;5026629;28;45370;-65
2022/01/02 01:32:06;;;;;;;;;22.50;20.50;;;;;13.86;62.62;101522.91;4999903;28;45876;-65
2022/01/02 01:34:32;;;;;;;;;22.50;19.25;;;;;13.78;62.43;101514.28;5014238;28;46305;-65
2022/01/02 01:36:57;;;;;;;;;22.75;21.00;;;;;13.87;62.78;101534.53;5026659;28;45448;-65
2022/01/02 01:39:22;;;;;;;;;21.75;18.25;;;;;13.84;62.78;101534.66;5020745;28;45299;-65
2022/01/02 01:41:51;;;;;;;;;21.00;20.75;;;;;13.85;62.71;101523.88;5019306;28;45248;-65
2022/01/02 01:46:42;;;;;;;;;20.25;20.00;;;;;13.85;62.40;101518.50;5018205;28;45404;-65
2022/01/02 01:49:16;;;;;;;;;20.50;18.75;;;;;13.89;62.50;101517.44;5020237;28;45312;-65
2022/01/02 01:51:43;;;;;;;;;19.00;18.00;;;;;13.93;62.78;101526.28;5013881;28;45495;-64
2022/01/02 01:54:09;;;;;;;;;17.25;16.50;;;;;13.94;62.75;101519.13;5020470;28;45479;-64
2022/01/02 01:56:36;;;;;;;;;17.25;17.00;;;;;13.94;62.79;101513.75;5024067;28;45352;-65
2022/01/02 01:59:02;;;;;;;;;17.00;15.50;;;;;13.93;62.59;101506.63;5020666;28;45169;-64
2022/01/02 02:01:28;;;;;;;;;16.75;16.50;;;;;13.86;62.68;101496.06;5016735;28;46038;-65
2022/01/02 02:03:53;;;;;;;;;18.00;16.25;;;;;13.58;62.70;101445.19;5020006;28;45356;-64
2022/01/02 02:06:18;;;;;;;;;17.25;16.75;;;;;13.84;62.52;101494.41;4999138;28;45354;-65
2022/01/02 02:08:44;;;;;;;;;16.50;16.00;;;;;13.84;62.33;101500.63;5019940;28;45375;-65
2022/01/02 02:11:09;;;;;;;;;18.75;18.25;;;;;13.81;62.54;101486.44;5018870;28;45886;-65
2022/01/02 02:13:38;;;;;;;;;17.50;16.75;;;;;13.74;62.46;101475.03;5020081;28;46283;-65
2022/01/02 02:16:04;;;;;;;;;22.50;17.50;;;;;13.79;62.87;101483.81;5033151;28;45532;-65
2022/01/02 02:18:29;;;;;;;;;18.50;16.00;;;;;13.74;62.66;101468.81;5026254;28;45322;-65
2022/01/02 02:20:55;;;;;;;;;14.25;14.25;;;;;13.78;62.81;101473.13;5003808;28;45465;-64
2022/01/02 02:23:20;;;;;;;;;17.50;16.25;;;;;13.76;62.71;101466.94;5020008;28;46137;-65
2022/01/02 02:25:45;;;;;;;;;16.00;15.00;;;;;13.75;62.29;101463.38;5016966;28;45158;-65
2022/01/02 02:28:14;;;;;;;;;11.25;11.00;;;;;13.63;62.22;101442.31;5020114;28;45846;-64
2022/01/02 02:30:43;;;;;;;;;11.75;11.50;;;;;13.68;62.86;101461.81;5006980;28;45271;-65
2022/01/02 02:33:09;;;;;;;;;14.25;14.25;;;;;13.66;62.72;101459.19;5020077;28;45924;-64
2022/01/02 02:35:37;;;;;;;;;16.25;15.25;;;;;13.63;62.54;101453.94;5021832;28;45591;-64
2022/01/02 02:38:05;;;;;;;;;13.50;13.50;;;;;13.53;62.82;101429.25;5025349;28;45385;-65
2022/01/02 02:40:31;;;;;;;;;13.25;13.25;;;;;13.57;62.82;101440.75;5002016;28;45441;-64
2022/01/02 02:43:45;;;;;;;;;17.50;17.50;;;;;13.64;62.60;101442.28;5024145;28;45909;-65
2022/01/02 02:51:23;;;;;;;;;16.00;15.75;;;;;13.65;62.56;101419.91;5009599;28;45231;-65
2022/01/02 02:53:49;;;;;;;;;16.25;14.75;;;;;13.59;62.46;101411.19;5018008;28;47370;-64
2022/01/02 02:56:28;;;;;;;;;18.00;16.00;;;;;13.56;62.68;101405.91;5019291;28;45456;-64
2022/01/02 02:58:56;;;;;;;;;17.50;14.00;;;;;13.65;62.66;101411.84;5020011;28;45341;-64
2022/01/02 03:01:24;;;;;;;;;15.00;12.75;;;;;13.66;62.52;101407.34;5019407;28;45652;-65
2022/01/02 03:03:50;;;;;;;;;15.00;13.00;;;;;13.63;62.69;101413.72;5017273;28;45378;-64
2022/01/02 03:06:16;;;;;;;;;15.25;14.25;;;;;13.60;62.56;101402.19;5015771;28;45275;-65
2022/01/02 03:08:43;;;;;;;;;13.75;12.00;;;;;13.60;62.97;101415.59;5018389;28;45394;-65
2022/01/02 03:11:14;;;;;;;;;18.00;15.25;;;;;13.60;62.81;101412.91;5019435;28;45589;-65
2022/01/02 03:13:39;;;;;;;;;13.75;13.50;;;;;13.57;62.60;101413.91;5018985;28;46239;-64
2022/01/02 03:16:05;;;;;;;;;10.75;10.75;;;;;13.65;62.67;101417.22;5018291;28;45297;-65
2022/01/02 03:18:31;;;;;;;;;16.00;14.50;;;;;13.65;62.57;101398.44;5010818;28;45327;-65
2022/01/02 03:20:56;;;;;;;;;15.25;14.00;;;;;13.43;62.85;101349.13;5038651;28;45450;-64
2022/01/02 03:23:22;;;;;;;;;15.00;12.25;;;;;13.65;62.46;101373.44;5024902;28;46088;-65
2022/01/02 03:25:47;;;;;;;;;16.00;16.00;;;;;13.57;62.31;101362.94;5022642;28;45264;-65
2022/01/02 03:28:13;;;;;;;;;11.25;11.25;;;;;13.61;62.42;101386.03;5022932;28;45514;-65
2022/01/02 03:30:38;;;;;;;;;15.00;12.25;;;;;13.61;62.69;101407.50;5011388;28;45496;-65
2022/01/02 03:33:03;;;;;;;;;11.00;11.00;;;;;13.58;62.41;101410.31;5019695;28;46102;-64
2022/01/02 03:35:29;;;;;;;;;17.50;15.00;;;;;13.65;62.47;101408.31;5012837;28;45423;-65
2022/01/02 03:37:55;;;;;;;;;13.25;13.00;;;;;13.68;62.31;101410.84;5022799;28;45547;-65
2022/01/02 03:40:20;;;;;;;;;13.50;11.00;;;;;13.58;62.43;101394.22;5024756;28;45656;-64
2022/01/02 03:42:46;;;;;;;;;11.00;9.00;;;;;13.63;62.56;101399.41;5023470;28;45472;-64
2022/01/02 03:45:11;;;;;;;;;12.75;12.75;;;;;13.68;62.54;101403.69;5022329;28;45423;-65
2022/01/02 03:47:37;;;;;;;;;15.75;14.25;;;;;13.62;62.45;101395.00;5022718;28;45415;-64
2022/01/02 03:50:04;;;;;;;;;15.25;14.25;;;;;13.62;62.53;101393.16;5021067;28;45647;-64
2022/01/02 03:52:30;;;;;;;;;13.75;11.75;;;;;13.69;62.36;101378.59;5011122;28;47143;-65
2022/01/02 03:54:56;;;;;;;;;14.25;12.00;;;;;13.65;62.37;101379.66;5022191;28;45439;-64
2022/01/02 03:57:21;;;;;;;;;13.75;13.50;;;;;13.71;62.24;101378.56;5013042;28;45411;-64
2022/01/02 03:59:47;;;;;;;;;11.50;11.50;;;;;13.68;62.53;101363.47;5021598;28;45224;-64
2022/01/02 04:02:12;;;;;;;;;14.25;14.25;;;;;13.60;61.91;101351.22;5030833;28;45330;-64
2022/01/02 04:04:37;;;;;;;;;13.25;13.25;;;;;13.71;62.19;101371.41;5017935;28;45281;-65
2022/01/02 04:07:04;;;;;;;;;14.00;12.25;;;;;13.65;62.20;101363.56;5022362;28;45297;-64
2022/01/02 04:09:29;;;;;;;;;11.50;11.50;;;;;13.74;62.25;101380.25;5021239;28;45586;-64
2022/01/02 04:11:55;;;;;;;;;16.75;15.00;;;;;13.70;62.02;101372.31;5025650;28;45435;-64
2022/01/02 04:14:20;;;;;;;;;10.75;10.75;;;;;13.73;62.16;101367.78;5020811;28;45380;-65
2022/01/02 04:16:45;;;;;;;;;10.00;9.50;;;;;13.74;62.06;101369.53;5021338;28;45475;-65
2022/01/02 04:19:11;;;;;;;;;12.75;11.00;;;;;13.76;62.01;101381.09;5021185;28;45321;-65
2022/01/02 04:21:36;;;;;;;;;14.00;11.75;;;;;13.77;62.09;101374.78;5028627;28;45677;-64
2022/01/02 04:24:01;;;;;;;;;12.75;11.25;;;;;13.76;62.05;101370.34;5021759;28;45304;-64
2022/01/02 04:26:27;;;;;;;;;14.00;12.00;;;;;13.73;61.91;101348.97;5021010;28;45507;-64
2022/01/02 04:28:52;;;;;;;;;12.75;11.00;;;;;13.74;62.01;101334.66;5019195;28;45722;-65
2022/01/02 04:31:18;;;;;;;;;10.25;10.25;;;;;13.77;61.95;101339.91;5012068;28;46124;-65
2022/01/02 04:33:43;;;;;;;;;12.25;12.25;;;;;13.71;62.08;101336.53;5022740;28;45501;-65
2022/01/02 04:36:09;;;;;;;;;10.75;10.00;;;;;13.75;61.69;101344.44;5030866;28;45362;-65
2022/01/02 04:38:36;;;;;;;;;10.50;9.00;;;;;13.79;61.71;101352.31;5003588;28;45854;-65
2022/01/02 04:41:02;;;;;;;;;13.00;13.00;;;;;13.72;61.72;101334.72;5031918;28;46231;-64
2022/01/02 04:43:28;;;;;;;;;14.00;10.25;;;;;13.65;61.37;101331.38;5021155;28;45266;-65
2022/01/02 04:45:53;;;;;;;;;12.00;10.00;;;;;13.71;61.84;101338.31;5021911;28;45254;-64
2022/01/02 04:48:19;;;;;;;;;13.50;13.00;;;;;13.75;61.47;101341.75;5021390;28;45343;-65
2022/01/02 04:50:44;;;;;;;;;11.50;11.00;;;;;13.74;61.56;101327.47;5021350;28;46738;-64
2022/01/02 04:53:10;;;;;;;;;11.25;9.75;;;;;13.71;61.72;101322.22;5029221;28;45280;-65
2022/01/02 04:55:35;;;;;;;;;10.50;10.50;;;;;13.69;61.63;101314.22;5022023;28;45617;-65
2022/01/02 04:58:01;;;;;;;;;10.25;10.25;;;;;13.73;61.25;101316.78;5019732;28;45415;-65
2022/01/02 05:00:26;;;;;;;;;10.25;9.25;;;;;13.67;61.61;101304.50;5011494;28;46268;-65
2022/01/02 05:02:52;;;;;;;;;10.00;10.00;;;;;13.70;61.76;101304.38;5027471;28;45260;-65
2022/01/02 05:05:18;;;;;;;;;10.50;10.00;;;;;13.71;61.31;101298.06;5019015;28;45443;-64
2022/01/02 05:07:44;;;;;;;;;10.00;10.00;;;;;13.70;61.56;101294.50;5017795;28;45400;-65
2022/01/02 05:10:10;;;;;;;;;9.00;9.00;;;;;13.71;61.33;101277.50;5018765;28;45847;-64
2022/01/02 05:12:35;;;;;;;;;10.75;10.25;;;;;13.69;61.74;101273.97;5021289;28;45139;-65
2022/01/02 05:15:02;;;;;;;;;14.75;11.75;;;;;13.70;61.11;101265.00;5020998;28;45285;-64
2022/01/02 05:17:27;;;;;;;;;10.50;10.25;;;;;13.67;61.23;101278.53;5003149;28;46195;-65
2022/01/02 05:19:53;;;;;;;;;9.50;8.50;;;;;13.71;61.28;101295.38;5021069;28;45500;-64
2022/01/02 05:22:19;;;;;;;;;12.50;11.00;;;;;13.70;61.46;101290.97;5019635;28;45313;-65
2022/01/02 05:24:44;;;;;;;;;10.75;10.75;;;;;13.76;61.52;101303.28;5019439;28;45478;-65
2022/01/02 05:27:09;;;;;;;;;12.25;10.25;;;;;13.71;60.98;101296.28;5030481;28;45975;-64
2022/01/02 05:29:35;;;;;;;;;12.00;11.75;;;;;13.71;61.20;101288.22;5020441;28;46641;-65
2022/01/02 05:32:00;;;;;;;;;10.25;9.00;;;;;13.74;61.04;101281.00;5020633;28;45328;-65
2022/01/02 05:34:25;;;;;;;;;10.00;9.00;;;;;13.76;61.32;101284.47;5021284;28;45321;-64
2022/01/02 05:36:51;;;;;;;;;11.25;10.50;;;;;13.70;61.30;101273.06;5018939;28;45280;-64
2022/01/02 05:39:18;;;;;;;;;10.50;10.25;;;;;13.82;61.25;101276.22;5024330;28;45303;-64
2022/01/02 05:41:44;;;;;;;;;10.00;8.75;;;;;13.83;61.27;101281.53;5001151;28;45380;-64
2022/01/02 05:44:10;;;;;;;;;8.00;8.00;;;;;13.84;61.09;101291.31;5020771;28;45432;-64
2022/01/02 05:46:35;;;;;;;;;9.50;9.25;;;;;13.79;61.15;101268.28;5019172;28;45526;-64
2022/01/02 05:49:00;;;;;;;;;8.25;8.25;;;;;13.86;61.06;101288.56;5020590;28;45362;-65
2022/01/02 05:51:26;;;;;;;;;10.50;8.75;;;;;13.91;60.91;101283.91;5020383;28;45309;-64
2022/01/02 05:53:51;;;;;;;;;10.75;10.75;;;;;13.82;60.83;101287.81;5024984;28;45379;-65
2022/01/02 05:56:16;;;;;;;;;10.00;9.00;;;;;13.87;61.26;101285.84;5024804;28;45277;-65
2022/01/02 05:58:42;;;;;;;;;8.75;8.75;;;;;13.91;60.63;101291.97;5004663;28;46866;-65
2022/01/02 06:01:07;;;;;;;;;8.75;8.75;;;;;13.89;60.84;101288.47;5025790;28;46658;-64
2022/01/02 06:03:33;;;;;;;;;8.75;8.75;;;;;13.76;60.72;101265.72;5021658;28;45448;-65
2022/01/02 06:05:58;;;;;;;;;8.75;8.75;;;;;13.93;60.86;101297.28;5005585;28;45463;-65
2022/01/02 06:08:24;;;;;;;;;11.00;10.00;;;;;13.89;60.53;101294.69;5019470;28;46301;-65
2022/01/02 06:10:49;;;;;;;;;11.50;9.00;;;;;13.93;60.92;101292.78;5009301;28;45623;-65
2022/01/02 06:13:14;;;;;;;;;10.75;10.75;;;;;13.92;60.77;101282.13;5002284;28;45765;-64
2022/01/02 06:15:40;;;;;;;;;8.50;8.50;;;;;13.94;60.48;101282.94;5007383;28;45714;-64
2022/01/02 06:18:05;;;;;;;;;9.50;9.50;;;;;13.94;60.48;101291.84;5009540;28;47195;-65
2022/01/02 06:20:31;;;;;;;;;9.25;8.75;;;;;13.89;60.44;101278.59;5030465;28;45273;-65
2022/01/02 06:22:56;;;;;;;;;10.00;10.00;;;;;13.94;60.72;101262.31;5022695;28;45580;-65
2022/01/02 06:25:22;;;;;;;;;10.25;9.00;;;;;13.89;60.38;101258.94;5017035;28;45434;-64
2022/01/02 06:27:48;;;;;;;;;12.00;11.50;;;;;13.94;60.51;101297.22;5016434;28;47420;-65
2022/01/02 06:30:14;;;;;;;;;10.75;10.25;;;;;13.94;60.23;101286.47;5020164;28;45363;-65
2022/01/02 06:32:39;;;;;;;;;12.00;10.75;;;;;13.94;60.71;101293.66;5020013;28;45338;-65
2022/01/02 06:35:05;;;;;;;;;10.50;9.50;;;;;14.00;60.82;101309.53;5020289;28;45641;-65
2022/01/02 06:37:30;;;;;;;;;11.00;10.00;;;;;13.98;60.59;101308.72;5022847;28;45627;-65
2022/01/02 06:39:56;;;;;;;;;12.50;9.50;;;;;13.95;60.57;101290.03;4998105;28;46048;-64
2022/01/02 06:42:21;;;;;;;;;7.00;7.00;;;;;14.02;60.77;101305.84;5019672;28;45411;-65
2022/01/02 06:44:47;;;;;;;;;10.00;9.00;;;;;14.02;60.54;101287.06;5019905;28;45285;-64
2022/01/02 06:47:12;;;;;;;;;8.25;8.00;;;;;14.01;60.52;101300.53;5018877;28;45878;-64
2022/01/02 06:49:37;;;;;;;;;9.00;8.25;;;;;13.96;60.68;101281.91;5018598;28;45352;-64
2022/01/02 06:52:03;;;;;;;;;9.75;9.75;;;;;14.04;60.64;101316.53;5005716;28;45365;-64
2022/01/02 06:54:28;;;;;;;;;9.25;9.25;;;;;14.06;60.84;101315.53;5019186;28;45555;-64
2022/01/02 06:56:53;;;;;;;;;11.25;8.75;;;;;13.95;60.40;101293.63;5025795;28;47236;-64
2022/01/02 06:59:19;;;;;;;;;8.50;7.75;;;;;14.00;60.44;101304.16;5019765;28;45248;-65
2022/01/02 07:01:44;;;;;;;;;11.75;9.00;;;;;14.00;60.50;101301.47;5019690;28;45452;-64
2022/01/02 07:04:10;;;;;;;;;10.25;8.50;;;;;14.03;60.74;101306.72;5019802;28;45395;-64
2022/01/02 07:06:35;;;;;;;;;8.50;8.00;;;;;14.00;60.63;101288.94;5019507;28;45460;-64
2022/01/02 07:09:01;;;;;;;;;7.25;7.25;;;;;14.04;60.50;101301.28;5020348;28;45343;-65
2022/01/02 07:11:26;;;;;;;;;8.00;8.00;;;;;14.03;60.55;101298.66;5017858;28;45452;-64
2022/01/02 07:13:52;;;;;;;;;8.50;8.50;;;;;14.03;60.85;101313.00;5029078;28;45608;-64
2022/01/02 07:16:17;;;;;;;;;8.00;8.00;;;;;14.05;60.73;101312.94;5013793;28;45960;-64
2022/01/02 07:18:42;;;;;;;;;10.00;8.00;;;;;14.04;60.66;101312.03;5019144;28;45388;-65
2022/01/02 07:21:08;;;;;;;;;8.00;8.00;;;;;14.08;60.87;101319.06;5016459;28;45457;-65
2022/01/02 07:23:33;;;;;;;;;8.50;8.50;;;;;14.04;60.49;101317.41;5016224;28;45494;-64
2022/01/02 07:25:58;;;;;;;;;8.50;8.00;;;;;14.06;60.83;101326.28;5018097;28;45654;-65
2022/01/02 07:28:24;;;;;;;;;7.75;7.75;;;;;14.06;60.72;101334.31;5022712;28;45447;-65
2022/01/02 07:30:49;;;;;;;;;8.75;7.00;;;;;13.99;60.78;101315.84;5000168;28;45471;-65
2022/01/02 07:33:14;;;;;;;;;10.00;9.00;;;;;14.03;61.03;101315.69;4990894;28;45378;-64
2022/01/02 07:35:40;;;;;;;;;8.00;8.00;;;;;14.10;60.99;101332.44;5018524;28;45399;-64
2022/01/02 07:38:05;;;;;;;;;8.50;8.50;;;;;14.13;60.95;101334.09;5018584;28;45439;-64
2022/01/02 07:40:31;;;;;;;;;13.75;9.25;;;;;14.08;60.93;101331.59;5018087;28;45502;-65
2022/01/02 07:42:56;;;;;;;;;11.25;10.00;;;;;14.12;61.24;101335.06;5018881;28;45428;-64
2022/01/02 07:45:21;;;;;;;;;12.00;9.75;;;;;14.12;61.21;101335.91;5018984;28;45337;-64
2022/01/02 07:47:47;;;;;;;;;12.00;10.00;;;;;14.15;60.99;101357.28;5027707;28;45316;-65
2022/01/02 07:50:12;;;;;;;;;9.50;8.75;;;;;14.15;61.26;101353.69;5014246;28;45733;-64
2022/01/02 07:52:38;;;;;;;;;9.25;9.25;;;;;14.13;61.07;101355.56;5007776;28;45455;-65
2022/01/02 07:55:04;;;;;;;;;12.25;8.25;;;;;14.06;61.22;101358.47;5018543;28;45428;-65
2022/01/02 07:57:29;;;;;;;;;8.75;8.75;;;;;14.10;61.24;101361.97;5018520;28;45582;-64
2022/01/02 07:59:54;;;;;;;;;10.00;9.00;;;;;14.15;60.97;101380.56;5018012;28;45367;-64
2022/01/02 08:02:20;;;;;;;;;9.00;8.50;;;;;14.17;61.21;101397.50;5017649;28;45399;-64
2022/01/02 08:04:45;;;;;;;;;10.25;9.75;;;;;14.17;61.24;101397.50;5023220;28;46529;-64
2022/01/02 08:07:10;;;;;;;;;6.75;6.75;;;;;14.08;61.20;101390.63;5021502;28;45320;-64
2022/01/02 08:09:36;;;;;;;;;10.75;9.00;;;;;14.14;61.49;101408.34;5021762;28;45965;-64
2022/01/02 08:12:01;;;;;;;;;9.25;8.50;;;;;14.15;61.34;101419.03;5020735;28;45567;-64
2022/01/02 08:14:26;;;;;;;;;10.00;10.00;;;;;14.13;61.56;101426.25;5021073;28;45528;-64
2022/01/02 08:16:53;;;;;;;;;10.00;8.00;;;;;14.09;61.44;101419.25;5019927;28;45376;-64
2022/01/02 08:19:18;;;;;;;;;9.25;9.25;;;;;14.13;61.24;101420.00;5022017;28;45463;-64
2022/01/02 08:21:44;;;;;;;;;13.00;10.25;;;;;14.10;61.52;101415.66;5025335;28;47262;-64
2022/01/02 08:24:09;;;;;;;;;9.75;8.75;;;;;14.12;61.62;101421.84;5026602;28;46010;-65
2022/01/02 08:26:35;;;;;;;;;4.25;2.50;;;;;14.14;61.33;101429.84;5022015;28;45355;-65
2022/01/02 08:29:00;;;;;;;;;9.00;9.00;;;;;14.09;61.69;101422.81;5020224;28;45424;-65
2022/01/02 08:31:29;;;;;;;;;10.75;10.00;;;;;14.12;61.66;101435.25;5020540;28;45232;-65
2022/01/02 08:33:55;;;;;;;;;9.50;8.75;;;;;14.14;61.75;101432.50;5021510;28;45471;-65
2022/01/02 08:36:21;;;;;;;;;10.25;10.25;;;;;14.14;61.78;101427.16;5021559;28;45356;-65
2022/01/02 08:38:47;;;;;;;;;10.25;10.25;;;;;14.14;61.64;101419.09;5030082;28;45367;-65
2022/01/02 08:41:14;;;;;;;;;10.00;10.00;;;;;14.11;61.86;101417.38;5021283;28;45515;-65
2022/01/02 08:43:40;;;;;;;;;10.00;10.00;;;;;14.18;62.08;101423.41;5021759;28;45324;-65
2022/01/02 08:46:05;;;;;;;;;12.00;11.75;;;;;14.17;62.03;101430.59;5008488;28;45311;-65
2022/01/02 08:48:31;;;;;;;;;11.25;10.75;;;;;14.08;62.11;101415.69;5018521;28;45475;-65
2022/01/02 08:50:56;;;;;;;;;8.75;8.25;;;;;14.20;62.06;101430.47;5020866;28;45218;-65
2022/01/02 08:53:21;;;;;;;;;11.75;11.75;;;;;14.20;62.14;101430.47;5023638;28;46305;-65
2022/01/02 08:55:47;;;;;;;;;10.00;10.00;;;;;14.22;62.24;101439.34;5021161;28;45395;-65
2022/01/02 08:58:13;;;;;;;;;11.75;11.25;;;;;14.22;62.19;101446.53;5020472;28;45277;-66
2022/01/02 09:00:38;;;;;;;;;13.00;10.75;;;;;14.15;61.78;101432.47;5006759;28;45402;-66
2022/01/02 09:03:04;;;;;;;;;11.00;11.00;;;;;14.19;62.38;101441.28;5021251;28;45233;-67
2022/01/02 09:05:30;;;;;;;;;11.00;11.00;;;;;14.19;62.41;101444.81;5018994;28;45392;-66
2022/01/02 09:07:55;;;;;;;;;12.00;11.00;;;;;14.22;62.72;101450.09;5011242;28;45410;-66
2022/01/02 09:10:21;;;;;;;;;11.25;10.50;;;;;14.28;62.76;101465.09;5020258;28;46782;-66
2022/01/02 09:12:48;;;;;;;;;11.50;10.00;;;;;14.23;62.71;101457.22;5019924;28;46015;-66
2022/01/02 09:15:13;;;;;;;;;12.25;10.75;;;;;14.33;62.25;101470.31;5019821;28;45989;-71
2022/01/02 09:17:38;;;;;;;;;10.25;9.75;;;;;14.33;63.04;101471.16;5020876;28;45332;-71
2022/01/02 09:20:06;;;;;;;;;12.00;9.00;;;;;14.35;62.91;101473.81;5002756;28;45690;-66
2022/01/02 09:22:32;;;;;;;;;9.00;9.00;;;;;14.33;62.81;101451.50;5018679;28;45156;-66
2022/01/02 09:24:57;;;;;;;;;11.00;9.50;;;;;14.35;62.84;101472.00;5019591;28;45348;-65
2022/01/02 09:27:22;;;;;;;;;9.50;9.50;;;;;14.34;62.87;101478.31;5026521;28;45431;-66
2022/01/02 09:29:48;;;;;;;;;11.50;10.00;;;;;14.31;62.95;101469.50;5020458;28;45515;-66
2022/01/02 09:32:13;;;;;;;;;10.00;10.00;;;;;14.41;62.89;101473.59;5017323;28;47221;-66
2022/01/02 09:34:38;;;;;;;;;9.75;9.25;;;;;14.40;63.19;101469.13;5019763;28;45334;-66
2022/01/02 09:37:04;;;;;;;;;10.75;10.75;;;;;14.40;62.99;101471.81;5019895;28;45498;-66
2022/01/02 09:39:30;;;;;;;;;8.00;8.00;;;;;14.44;62.98;101481.53;5019712;28;45502;-66
2022/01/02 09:41:55;;;;;;;;;11.75;8.75;;;;;14.44;63.28;101482.41;5019594;28;46344;-66
2022/01/02 09:44:21;;;;;;;;;12.00;10.00;;;;;14.48;63.08;101484.97;5031279;28;45427;-66
2022/01/02 09:46:51;;;;;;;;;8.75;8.75;;;;;14.51;63.36;101482.19;5018825;28;45324;-66
2022/01/02 09:49:18;;;;;;;;;10.50;8.50;;;;;14.51;63.61;101476.81;5017467;28;45407;-65
2022/01/02 09:51:44;;;;;;;;;10.75;9.00;;;;;14.45;63.42;101468.06;5018247;28;47479;-66
2022/01/02 09:54:10;;;;;;;;;9.00;8.75;;;;;14.51;63.62;101477.69;5023251;28;45254;-66
2022/01/02 09:56:36;;;;;;;;;10.75;10.50;;;;;14.52;63.13;101473.22;5031156;28;47225;-66
2022/01/02 09:59:02;;;;;;;;;9.00;9.00;;;;;14.51;63.49;101469.63;5002766;28;45394;-66
2022/01/02 10:01:29;;;;;;;;;11.75;9.50;;;;;14.54;63.34;101477.56;5020463;28;45406;-66
2022/01/02 10:03:57;;;;;;;;;10.75;9.00;;;;;14.56;63.61;101480.22;5020555;28;45451;-66
2022/01/02 10:06:46;;;;;;;;;7.25;7.25;;;;;14.57;63.65;101485.53;5019356;28;45507;-68
2022/01/02 10:09:36;;;;;;;;;12.50;9.25;;;;;14.57;63.60;101484.66;5014980;28;45308;-66
2022/01/02 10:12:21;;;;;;;;;8.75;8.50;;;;;14.56;63.81;101480.22;5013505;28;45535;-66
2022/01/02 10:15:15;;;;;;;;;9.75;8.75;;;;;14.59;63.87;101485.50;5020088;28;45182;-67
2022/01/02 10:18:04;;;;;;;;;11.00;9.00;;;;;14.61;63.65;101480.94;5014541;28;45333;-69
2022/01/02 10:20:33;;;;;;;;;10.50;9.50;;;;;14.63;63.78;101484.44;5005142;28;45529;-63
2022/01/02 10:23:09;;;;;;;;;9.25;9.25;;;;;14.66;63.81;101488.84;5019015;28;45558;-64
2022/01/02 10:25:47;;;;;;;;;9.00;7.50;;;;;14.68;63.60;101492.34;5019116;28;45662;-64
2022/01/02 10:28:30;;;;;;;;;5.00;5.00;;;;;14.68;63.48;101465.47;5013757;28;45282;-64
2022/01/02 10:31:04;;;;;;;;;7.50;6.75;;;;;14.70;63.59;101468.97;5014955;28;45264;-64
2022/01/02 10:33:48;;;;;;;;;7.75;6.75;;;;;14.72;63.54;101469.81;5010291;28;47191;-64
2022/01/02 10:36:14;;;;;;;;;6.00;6.00;;;;;14.74;63.53;101476.00;5018350;28;46763;-64
2022/01/02 10:39:08;;;;;;;;;8.00;7.00;;;;;14.73;63.46;101475.09;5014762;28;45657;-64
2022/01/02 10:41:38;;;;;;;;;6.00;6.00;;;;;14.76;63.53;101483.03;5012229;28;45578;-64
2022/01/02 10:44:21;;;;;;;;;7.00;6.00;;;;;14.82;63.64;101484.63;5008684;28;46159;-64
2022/01/02 10:47:11;;;;;;;;;7.75;5.75;;;;;14.81;63.71;101466.75;5021623;28;45534;-64
2022/01/02 10:49:50;;;;;;;;;6.00;5.25;;;;;14.87;63.75;101479.06;5016211;28;45809;-65
2022/01/02 10:52:33;;;;;;;;;7.00;7.00;;;;;14.90;63.73;101470.88;5017414;28;45495;-65
2022/01/02 10:55:05;;;;;;;;;9.50;7.00;;;;;14.92;63.47;101472.59;5019561;28;46377;-64
2022/01/02 10:57:32;;;;;;;;;7.00;5.50;;;;;14.89;63.86;101466.47;5026676;28;45370;-64
2022/01/02 10:59:58;;;;;;;;;5.50;5.50;;;;;14.93;63.57;101473.47;5019779;28;45391;-64
2022/01/02 11:02:25;;;;;;;;;6.50;5.00;;;;;14.92;63.42;101472.59;5018758;28;45452;-64
2022/01/02 11:04:58;;;;;;;;;5.50;5.50;;;;;14.95;63.64;101471.56;5012782;28;46223;-65
2022/01/02 11:07:25;;;;;;;;;8.00;7.25;;;;;14.94;63.79;101469.84;5018260;28;45538;-66
2022/01/02 11:09:55;;;;;;;;;5.00;5.00;;;;;14.99;63.53;101478.59;5036457;28;45234;-66
2022/01/02 11:12:21;;;;;;;;;7.25;6.50;;;;;14.98;63.80;101468.78;5029648;28;45744;-68
2022/01/02 11:14:48;;;;;;;;;6.75;5.75;;;;;14.97;63.73;101467.91;5024411;28;45513;-66
2022/01/02 11:17:14;;;;;;;;;7.75;5.75;;;;;15.03;63.62;101472.16;5021738;28;45679;-66
2022/01/02 11:19:40;;;;;;;;;7.00;6.25;;;;;15.05;63.47;101467.63;5021630;28;45454;-66
2022/01/02 11:22:13;;;;;;;;;6.00;5.00;;;;;15.04;63.64;101473.91;5019200;28;45321;-65